sensor_id;sensor_type;location;lat;lon;timestamp;P1;durP1;ratioP1;P2;durP2;ratioP2
17488;SDS011;8861;52.644;4.734;2022-08-18T00:00:52;6.93;;;6.33;;
17488;SDS011;8861;52.644;4.734;2022-08-18T00:03:20;7.43;;;6.73;;
17488;SDS011;8861;52.644;4.734;2022-08-18T00:05:47;6.83;;;6.23;;
17488;SDS011;8861;52.644;4.734;2022-08-18T00:08:14;7.07;;;6.47;;
17488;SDS011;8861;52.644;4.734;2022-08-18T00:10:43;6.90;;;6.30;;
17488;SDS011;8861;52.644;4.734;2022-08-18T00:13:10;7.67;;;7.00;;
17488;SDS011;8861;52.644;4.734;2022-08-18T00:15:37;7.40;;;6.80;;
17488;SDS011;8861;52.644;4.734;2022-08-18T00:18:04;7.17;;;6.57;;
17488;SDS011;8861;52.644;4.734;2022-08-18T00:20:31;8.10;;;7.33;;
17488;SDS011;8861;52.644;4.734;2022-08-18T00:22:58;8.50;;;7.63;;
17488;SDS011;8861;52.644;4.734;2022-08-18T00:25:25;7.87;;;7.17;;
17488;SDS011;8861;52.644;4.734;2022-08-18T00:27:53;7.70;;;7.00;;
17488;SDS011;8861;52.644;4.734;2022-08-18T00:30:20;9.63;;;8.73;;
17488;SDS011;8861;52.644;4.734;2022-08-18T00:32:48;8.70;;;7.90;;
17488;SDS011;8861;52.644;4.734;2022-08-18T00:35:17;8.97;;;8.17;;
17488;SDS011;8861;52.644;4.734;2022-08-18T00:37:50;8.80;;;7.90;;
17488;SDS011;8861;52.644;4.734;2022-08-18T00:40:18;9.60;;;8.17;;
17488;SDS011;8861;52.644;4.734;2022-08-18T00:42:48;9.77;;;8.77;;
17488;SDS011;8861;52.644;4.734;2022-08-18T00:45:19;8.47;;;7.67;;
17488;SDS011;8861;52.644;4.734;2022-08-18T00:47:49;8.60;;;7.67;;
17488;SDS011;8861;52.644;4.734;2022-08-18T00:50:17;7.93;;;7.23;;
17488;SDS011;8861;52.644;4.734;2022-08-18T00:52:48;7.40;;;6.80;;
17488;SDS011;8861;52.644;4.734;2022-08-18T00:55:19;7.13;;;6.43;;
17488;SDS011;8861;52.644;4.734;2022-08-18T00:57:47;7.57;;;6.87;;
17488;SDS011;8861;52.644;4.734;2022-08-18T01:00:16;8.77;;;7.87;;
17488;SDS011;8861;52.644;4.734;2022-08-18T01:02:47;8.73;;;7.60;;
17488;SDS011;8861;52.644;4.734;2022-08-18T01:05:20;8.10;;;7.30;;
17488;SDS011;8861;52.644;4.734;2022-08-18T01:07:49;8.10;;;7.40;;
17488;SDS011;8861;52.644;4.734;2022-08-18T01:10:17;8.10;;;7.30;;
17488;SDS011;8861;52.644;4.734;2022-08-18T01:12:48;7.87;;;7.07;;
17488;SDS011;8861;52.644;4.734;2022-08-18T01:15:19;7.57;;;6.87;;
17488;SDS011;8861;52.644;4.734;2022-08-18T01:17:47;8.07;;;7.27;;
17488;SDS011;8861;52.644;4.734;2022-08-18T01:20:32;8.20;;;7.47;;
17488;SDS011;8861;52.644;4.734;2022-08-18T01:23:20;7.60;;;6.90;;
17488;SDS011;8861;52.644;4.734;2022-08-18T01:25:48;7.27;;;6.60;;
17488;SDS011;8861;52.644;4.734;2022-08-18T01:28:24;7.23;;;6.53;;
17488;SDS011;8861;52.644;4.734;2022-08-18T01:30:53;6.10;;;5.60;;
17488;SDS011;8861;52.644;4.734;2022-08-18T01:33:22;6.20;;;5.70;;
17488;SDS011;8861;52.644;4.734;2022-08-18T01:35:51;6.00;;;5.50;;
17488;SDS011;8861;52.644;4.734;2022-08-18T01:38:20;6.00;;;5.50;;
17488;SDS011;8861;52.644;4.734;2022-08-18T01:40:47;6.83;;;6.23;;
17488;SDS011;8861;52.644;4.734;2022-08-18T01:43:15;6.30;;;5.80;;
17488;SDS011;8861;52.644;4.734;2022-08-18T01:45:42;6.70;;;6.10;;
17488;SDS011;8861;52.644;4.734;2022-08-18T01:48:09;5.87;;;5.37;;
17488;SDS011;8861;52.644;4.734;2022-08-18T01:50:36;6.10;;;5.60;;
17488;SDS011;8861;52.644;4.734;2022-08-18T01:53:07;6.57;;;5.97;;
17488;SDS011;8861;52.644;4.734;2022-08-18T01:55:38;6.57;;;5.97;;
17488;SDS011;8861;52.644;4.734;2022-08-18T01:58:09;6.07;;;5.57;;
17488;SDS011;8861;52.644;4.734;2022-08-18T02:00:36;5.90;;;5.40;;
17488;SDS011;8861;52.644;4.734;2022-08-18T02:03:04;6.00;;;5.50;;
17488;SDS011;8861;52.644;4.734;2022-08-18T02:05:33;5.77;;;5.27;;
17488;SDS011;8861;52.644;4.734;2022-08-18T02:08:03;5.73;;;5.23;;
17488;SDS011;8861;52.644;4.734;2022-08-18T02:10:31;6.20;;;5.70;;
17488;SDS011;8861;52.644;4.734;2022-08-18T02:12:59;5.70;;;5.20;;
17488;SDS011;8861;52.644;4.734;2022-08-18T02:15:26;6.07;;;5.57;;
17488;SDS011;8861;52.644;4.734;2022-08-18T02:17:53;6.40;;;5.83;;
17488;SDS011;8861;52.644;4.734;2022-08-18T02:20:20;6.73;;;6.13;;
17488;SDS011;8861;52.644;4.734;2022-08-18T02:22:47;7.03;;;6.43;;
17488;SDS011;8861;52.644;4.734;2022-08-18T02:25:15;7.17;;;6.57;;
17488;SDS011;8861;52.644;4.734;2022-08-18T02:27:43;7.83;;;7.00;;
17488;SDS011;8861;52.644;4.734;2022-08-18T02:30:14;7.13;;;6.53;;
17488;SDS011;8861;52.644;4.734;2022-08-18T02:32:43;7.37;;;6.67;;
17488;SDS011;8861;52.644;4.734;2022-08-18T02:35:10;8.03;;;7.23;;
17488;SDS011;8861;52.644;4.734;2022-08-18T02:37:37;7.43;;;6.73;;
17488;SDS011;8861;52.644;4.734;2022-08-18T02:40:05;6.60;;;6.00;;
17488;SDS011;8861;52.644;4.734;2022-08-18T02:42:33;7.07;;;6.47;;
17488;SDS011;8861;52.644;4.734;2022-08-18T02:45:02;7.03;;;6.43;;
17488;SDS011;8861;52.644;4.734;2022-08-18T02:47:31;8.00;;;7.20;;
17488;SDS011;8861;52.644;4.734;2022-08-18T02:49:58;7.93;;;7.23;;
17488;SDS011;8861;52.644;4.734;2022-08-18T02:52:25;7.10;;;6.50;;
17488;SDS011;8861;52.644;4.734;2022-08-18T02:54:56;8.10;;;7.30;;
17488;SDS011;8861;52.644;4.734;2022-08-18T02:57:25;7.80;;;7.10;;
17488;SDS011;8861;52.644;4.734;2022-08-18T02:59:52;6.70;;;6.10;;
17488;SDS011;8861;52.644;4.734;2022-08-18T03:02:19;6.97;;;6.37;;
17488;SDS011;8861;52.644;4.734;2022-08-18T03:04:48;6.77;;;6.17;;
17488;SDS011;8861;52.644;4.734;2022-08-18T03:07:15;6.03;;;5.53;;
17488;SDS011;8861;52.644;4.734;2022-08-18T03:09:42;6.27;;;5.77;;
17488;SDS011;8861;52.644;4.734;2022-08-18T03:12:09;6.50;;;5.90;;
17488;SDS011;8861;52.644;4.734;2022-08-18T03:14:36;5.70;;;5.20;;
17488;SDS011;8861;52.644;4.734;2022-08-18T03:17:07;5.40;;;5.00;;
17488;SDS011;8861;52.644;4.734;2022-08-18T03:19:35;5.77;;;5.27;;
17488;SDS011;8861;52.644;4.734;2022-08-18T03:22:04;5.20;;;4.80;;
17488;SDS011;8861;52.644;4.734;2022-08-18T03:24:33;5.50;;;5.07;;
17488;SDS011;8861;52.644;4.734;2022-08-18T03:27:03;5.43;;;4.93;;
17488;SDS011;8861;52.644;4.734;2022-08-18T03:29:31;4.60;;;4.20;;
17488;SDS011;8861;52.644;4.734;2022-08-18T03:31:58;4.60;;;4.20;;
17488;SDS011;8861;52.644;4.734;2022-08-18T03:34:25;4.60;;;4.20;;
17488;SDS011;8861;52.644;4.734;2022-08-18T03:36:52;4.47;;;4.13;;
17488;SDS011;8861;52.644;4.734;2022-08-18T03:39:20;4.60;;;4.20;;
17488;SDS011;8861;52.644;4.734;2022-08-18T03:41:49;4.90;;;4.50;;
17488;SDS011;8861;52.644;4.734;2022-08-18T03:44:18;4.53;;;4.13;;
17488;SDS011;8861;52.644;4.734;2022-08-18T03:46:46;5.17;;;4.77;;
17488;SDS011;8861;52.644;4.734;2022-08-18T03:49:13;4.67;;;4.27;;
17488;SDS011;8861;52.644;4.734;2022-08-18T03:51:41;4.80;;;4.40;;
17488;SDS011;8861;52.644;4.734;2022-08-18T03:54:10;4.87;;;4.47;;
17488;SDS011;8861;52.644;4.734;2022-08-18T03:56:41;4.57;;;4.20;;
17488;SDS011;8861;52.644;4.734;2022-08-18T03:59:09;4.20;;;3.90;;
17488;SDS011;8861;52.644;4.734;2022-08-18T04:01:40;4.70;;;4.30;;
17488;SDS011;8861;52.644;4.734;2022-08-18T04:04:09;4.20;;;3.90;;
17488;SDS011;8861;52.644;4.734;2022-08-18T04:06:39;4.70;;;4.30;;
17488;SDS011;8861;52.644;4.734;2022-08-18T04:09:09;4.70;;;4.30;;
17488;SDS011;8861;52.644;4.734;2022-08-18T04:11:38;4.40;;;4.10;;
17488;SDS011;8861;52.644;4.734;2022-08-18T04:14:08;4.30;;;4.00;;
17488;SDS011;8861;52.644;4.734;2022-08-18T04:16:36;4.30;;;4.00;;
17488;SDS011;8861;52.644;4.734;2022-08-18T04:19:03;4.77;;;4.37;;
17488;SDS011;8861;52.644;4.734;2022-08-18T04:21:31;5.97;;;5.40;;
17488;SDS011;8861;52.644;4.734;2022-08-18T04:24:01;5.80;;;5.30;;
17488;SDS011;8861;52.644;4.734;2022-08-18T04:26:30;5.83;;;5.33;;
17488;SDS011;8861;52.644;4.734;2022-08-18T04:28:59;7.77;;;6.97;;
17488;SDS011;8861;52.644;4.734;2022-08-18T04:31:26;7.33;;;6.50;;
17488;SDS011;8861;52.644;4.734;2022-08-18T04:33:55;8.13;;;7.43;;
17488;SDS011;8861;52.644;4.734;2022-08-18T04:36:22;9.83;;;8.83;;
17488;SDS011;8861;52.644;4.734;2022-08-18T04:38:50;8.80;;;8.00;;
17488;SDS011;8861;52.644;4.734;2022-08-18T04:41:17;9.37;;;8.47;;
17488;SDS011;8861;52.644;4.734;2022-08-18T04:43:51;10.23;;;9.23;;
17488;SDS011;8861;52.644;4.734;2022-08-18T04:46:20;8.93;;;8.13;;
17488;SDS011;8861;52.644;4.734;2022-08-18T04:48:47;9.80;;;8.83;;
17488;SDS011;8861;52.644;4.734;2022-08-18T04:51:15;9.67;;;8.73;;
17488;SDS011;8861;52.644;4.734;2022-08-18T04:53:45;9.80;;;8.90;;
17488;SDS011;8861;52.644;4.734;2022-08-18T04:56:13;10.13;;;9.13;;
17488;SDS011;8861;52.644;4.734;2022-08-18T04:58:44;9.77;;;8.87;;
17488;SDS011;8861;52.644;4.734;2022-08-18T05:01:15;10.23;;;9.23;;
17488;SDS011;8861;52.644;4.734;2022-08-18T05:03:43;9.50;;;8.60;;
17488;SDS011;8861;52.644;4.734;2022-08-18T05:06:10;9.83;;;8.93;;
17488;SDS011;8861;52.644;4.734;2022-08-18T05:08:37;10.00;;;9.10;;
17488;SDS011;8861;52.644;4.734;2022-08-18T05:11:04;10.17;;;9.27;;
17488;SDS011;8861;52.644;4.734;2022-08-18T05:13:32;9.10;;;8.30;;
17488;SDS011;8861;52.644;4.734;2022-08-18T05:15:59;8.90;;;8.10;;
17488;SDS011;8861;52.644;4.734;2022-08-18T05:18:27;9.43;;;8.63;;
17488;SDS011;8861;52.644;4.734;2022-08-18T05:20:56;8.40;;;7.60;;
17488;SDS011;8861;52.644;4.734;2022-08-18T05:23:24;9.77;;;8.77;;
17488;SDS011;8861;52.644;4.734;2022-08-18T05:25:55;8.80;;;8.00;;
17488;SDS011;8861;52.644;4.734;2022-08-18T05:28:23;11.53;;;10.33;;
17488;SDS011;8861;52.644;4.734;2022-08-18T05:30:51;10.30;;;9.30;;
17488;SDS011;8861;52.644;4.734;2022-08-18T05:33:18;10.07;;;9.17;;
17488;SDS011;8861;52.644;4.734;2022-08-18T05:35:46;10.47;;;9.47;;
17488;SDS011;8861;52.644;4.734;2022-08-18T05:38:19;11.13;;;10.07;;
17488;SDS011;8861;52.644;4.734;2022-08-18T05:41:06;9.67;;;8.77;;
17488;SDS011;8861;52.644;4.734;2022-08-18T05:43:36;9.23;;;8.40;;
17488;SDS011;8861;52.644;4.734;2022-08-18T05:46:05;8.80;;;8.00;;
17488;SDS011;8861;52.644;4.734;2022-08-18T05:48:34;8.57;;;7.77;;
17488;SDS011;8861;52.644;4.734;2022-08-18T05:51:09;9.53;;;8.60;;
17488;SDS011;8861;52.644;4.734;2022-08-18T05:53:42;9.30;;;8.40;;
17488;SDS011;8861;52.644;4.734;2022-08-18T05:56:31;8.93;;;8.13;;
17488;SDS011;8861;52.644;4.734;2022-08-18T05:59:15;8.93;;;8.13;;
17488;SDS011;8861;52.644;4.734;2022-08-18T06:01:47;9.33;;;8.53;;
17488;SDS011;8861;52.644;4.734;2022-08-18T06:04:22;8.57;;;7.80;;
17488;SDS011;8861;52.644;4.734;2022-08-18T06:06:58;10.27;;;9.27;;
17488;SDS011;8861;52.644;4.734;2022-08-18T06:09:32;11.50;;;10.30;;
17488;SDS011;8861;52.644;4.734;2022-08-18T06:12:06;10.23;;;9.13;;
17488;SDS011;8861;52.644;4.734;2022-08-18T06:14:40;8.80;;;8.00;;
17488;SDS011;8861;52.644;4.734;2022-08-18T06:17:11;8.73;;;7.93;;
17488;SDS011;8861;52.644;4.734;2022-08-18T06:19:49;7.77;;;7.07;;
17488;SDS011;8861;52.644;4.734;2022-08-18T06:22:27;7.30;;;6.70;;
17488;SDS011;8861;52.644;4.734;2022-08-18T06:25:05;6.90;;;6.30;;
17488;SDS011;8861;52.644;4.734;2022-08-18T06:27:41;6.63;;;6.03;;
17488;SDS011;8861;52.644;4.734;2022-08-18T06:30:21;6.17;;;5.67;;
17488;SDS011;8861;52.644;4.734;2022-08-18T06:33:01;6.27;;;5.67;;
17488;SDS011;8861;52.644;4.734;2022-08-18T06:35:38;6.07;;;5.57;;
17488;SDS011;8861;52.644;4.734;2022-08-18T06:38:14;6.53;;;5.93;;
17488;SDS011;8861;52.644;4.734;2022-08-18T06:41:11;5.77;;;5.27;;
17488;SDS011;8861;52.644;4.734;2022-08-18T06:43:43;7.97;;;6.37;;
17488;SDS011;8861;52.644;4.734;2022-08-18T06:46:31;6.80;;;6.20;;
17488;SDS011;8861;52.644;4.734;2022-08-18T06:49:07;6.20;;;5.60;;
17488;SDS011;8861;52.644;4.734;2022-08-18T06:51:35;6.70;;;6.07;;
17488;SDS011;8861;52.644;4.734;2022-08-18T06:54:04;6.80;;;6.10;;
17488;SDS011;8861;52.644;4.734;2022-08-18T06:56:46;6.03;;;5.43;;
17488;SDS011;8861;52.644;4.734;2022-08-18T06:59:19;6.80;;;6.10;;
17488;SDS011;8861;52.644;4.734;2022-08-18T07:01:49;6.50;;;5.90;;
17488;SDS011;8861;52.644;4.734;2022-08-18T07:04:29;6.50;;;5.90;;
17488;SDS011;8861;52.644;4.734;2022-08-18T07:07:11;6.10;;;5.50;;
17488;SDS011;8861;52.644;4.734;2022-08-18T07:09:44;6.10;;;5.60;;
17488;SDS011;8861;52.644;4.734;2022-08-18T07:12:17;7.27;;;6.07;;
17488;SDS011;8861;52.644;4.734;2022-08-18T07:14:47;6.63;;;6.03;;
17488;SDS011;8861;52.644;4.734;2022-08-18T07:17:18;5.57;;;5.07;;
17488;SDS011;8861;52.644;4.734;2022-08-18T07:22:53;5.27;;;4.87;;
17488;SDS011;8861;52.644;4.734;2022-08-18T07:25:23;4.50;;;4.10;;
17488;SDS011;8861;52.644;4.734;2022-08-18T07:27:54;4.23;;;3.93;;
17488;SDS011;8861;52.644;4.734;2022-08-18T07:30:26;4.17;;;3.77;;
17488;SDS011;8861;52.644;4.734;2022-08-18T07:32:59;3.77;;;3.47;;
17488;SDS011;8861;52.644;4.734;2022-08-18T07:35:35;3.60;;;3.30;;
17488;SDS011;8861;52.644;4.734;2022-08-18T07:38:07;4.33;;;4.03;;
17488;SDS011;8861;52.644;4.734;2022-08-18T07:40:43;4.77;;;4.33;;
17488;SDS011;8861;52.644;4.734;2022-08-18T07:43:19;4.40;;;4.00;;
17488;SDS011;8861;52.644;4.734;2022-08-18T07:45:51;4.83;;;4.43;;
17488;SDS011;8861;52.644;4.734;2022-08-18T07:48:35;5.30;;;4.80;;
17488;SDS011;8861;52.644;4.734;2022-08-18T07:51:04;5.67;;;5.00;;
17488;SDS011;8861;52.644;4.734;2022-08-18T07:53:44;6.27;;;5.63;;
17488;SDS011;8861;52.644;4.734;2022-08-18T07:56:18;7.57;;;6.50;;
17488;SDS011;8861;52.644;4.734;2022-08-18T07:58:57;8.50;;;7.60;;
17488;SDS011;8861;52.644;4.734;2022-08-18T08:01:33;7.63;;;6.87;;
17488;SDS011;8861;52.644;4.734;2022-08-18T08:04:08;7.27;;;6.57;;
17488;SDS011;8861;52.644;4.734;2022-08-18T08:06:40;7.63;;;6.20;;
17488;SDS011;8861;52.644;4.734;2022-08-18T08:09:11;7.50;;;6.70;;
17488;SDS011;8861;52.644;4.734;2022-08-18T08:11:50;7.43;;;6.53;;
17488;SDS011;8861;52.644;4.734;2022-08-18T08:14:27;7.13;;;6.43;;
17488;SDS011;8861;52.644;4.734;2022-08-18T08:17:04;7.23;;;6.53;;
17488;SDS011;8861;52.644;4.734;2022-08-18T08:19:46;7.70;;;6.90;;
17488;SDS011;8861;52.644;4.734;2022-08-18T08:22:28;10.77;;;8.30;;
17488;SDS011;8861;52.644;4.734;2022-08-18T08:25:00;7.07;;;6.37;;
17488;SDS011;8861;52.644;4.734;2022-08-18T08:27:36;6.37;;;5.77;;
17488;SDS011;8861;52.644;4.734;2022-08-18T08:30:17;5.93;;;5.33;;
17488;SDS011;8861;52.644;4.734;2022-08-18T08:32:50;5.57;;;5.07;;
17488;SDS011;8861;52.644;4.734;2022-08-18T08:35:32;5.73;;;5.13;;
17488;SDS011;8861;52.644;4.734;2022-08-18T08:38:05;5.00;;;4.60;;
17488;SDS011;8861;52.644;4.734;2022-08-18T08:40:37;4.70;;;4.30;;
17488;SDS011;8861;52.644;4.734;2022-08-18T08:43:14;4.07;;;3.73;;
17488;SDS011;8861;52.644;4.734;2022-08-18T08:45:46;4.30;;;3.90;;
17488;SDS011;8861;52.644;4.734;2022-08-18T08:48:28;4.03;;;3.73;;
17488;SDS011;8861;52.644;4.734;2022-08-18T08:50:59;5.23;;;4.17;;
17488;SDS011;8861;52.644;4.734;2022-08-18T08:53:29;3.70;;;3.43;;
17488;SDS011;8861;52.644;4.734;2022-08-18T08:56:01;3.70;;;3.40;;
17488;SDS011;8861;52.644;4.734;2022-08-18T08:58:33;4.20;;;3.80;;
17488;SDS011;8861;52.644;4.734;2022-08-18T09:01:06;3.97;;;3.67;;
17488;SDS011;8861;52.644;4.734;2022-08-18T09:03:42;4.17;;;3.77;;
17488;SDS011;8861;52.644;4.734;2022-08-18T09:06:16;5.00;;;4.50;;
17488;SDS011;8861;52.644;4.734;2022-08-18T09:09:03;4.80;;;4.40;;
17488;SDS011;8861;52.644;4.734;2022-08-18T09:11:47;4.83;;;4.40;;
17488;SDS011;8861;52.644;4.734;2022-08-18T09:14:36;4.67;;;3.87;;
17488;SDS011;8861;52.644;4.734;2022-08-18T09:17:28;4.27;;;3.87;;
17488;SDS011;8861;52.644;4.734;2022-08-18T09:20:23;4.03;;;3.60;;
17488;SDS011;8861;52.644;4.734;2022-08-18T09:23:03;4.80;;;4.30;;
17488;SDS011;8861;52.644;4.734;2022-08-18T09:25:42;5.40;;;4.47;;
17488;SDS011;8861;52.644;4.734;2022-08-18T09:28:12;4.53;;;4.13;;
17488;SDS011;8861;52.644;4.734;2022-08-18T09:30:43;4.23;;;3.83;;
17488;SDS011;8861;52.644;4.734;2022-08-18T09:33:25;4.43;;;4.07;;
17488;SDS011;8861;52.644;4.734;2022-08-18T09:38:51;3.70;;;3.40;;
17488;SDS011;8861;52.644;4.734;2022-08-18T09:41:39;3.70;;;3.40;;
17488;SDS011;8861;52.644;4.734;2022-08-18T09:44:55;4.50;;;4.10;;
17488;SDS011;8861;52.644;4.734;2022-08-18T09:53:52;4.17;;;3.83;;
17488;SDS011;8861;52.644;4.734;2022-08-18T09:59:49;4.20;;;3.90;;
17488;SDS011;8861;52.644;4.734;2022-08-18T10:05:54;5.03;;;4.47;;
17488;SDS011;8861;52.644;4.734;2022-08-18T10:11:49;4.87;;;4.47;;
17488;SDS011;8861;52.644;4.734;2022-08-18T10:14:36;5.27;;;4.77;;
17488;SDS011;8861;52.644;4.734;2022-08-18T10:17:25;7.10;;;5.10;;
17488;SDS011;8861;52.644;4.734;2022-08-18T10:20:09;6.17;;;4.57;;
17488;SDS011;8861;52.644;4.734;2022-08-18T10:22:49;5.40;;;4.90;;
17488;SDS011;8861;52.644;4.734;2022-08-18T10:25:29;5.37;;;4.90;;
17488;SDS011;8861;52.644;4.734;2022-08-18T10:28:02;5.23;;;4.73;;
17488;SDS011;8861;52.644;4.734;2022-08-18T10:39:18;4.87;;;4.37;;
17488;SDS011;8861;52.644;4.734;2022-08-18T10:41:57;4.90;;;4.17;;
17488;SDS011;8861;52.644;4.734;2022-08-18T10:44:29;5.97;;;5.00;;
17488;SDS011;8861;52.644;4.734;2022-08-18T10:47:00;5.50;;;5.00;;
17488;SDS011;8861;52.644;4.734;2022-08-18T10:49:28;5.77;;;5.10;;
17488;SDS011;8861;52.644;4.734;2022-08-18T10:52:00;5.50;;;5.00;;
17488;SDS011;8861;52.644;4.734;2022-08-18T10:54:46;6.23;;;5.00;;
17488;SDS011;8861;52.644;4.734;2022-08-18T10:57:46;5.47;;;4.90;;
17488;SDS011;8861;52.644;4.734;2022-08-18T11:00:36;4.80;;;4.40;;
17488;SDS011;8861;52.644;4.734;2022-08-18T11:03:14;4.70;;;4.30;;
17488;SDS011;8861;52.644;4.734;2022-08-18T11:05:49;4.63;;;4.23;;
17488;SDS011;8861;52.644;4.734;2022-08-18T11:08:25;4.73;;;4.23;;
17488;SDS011;8861;52.644;4.734;2022-08-18T11:10:53;5.10;;;4.67;;
17488;SDS011;8861;52.644;4.734;2022-08-18T11:13:21;5.77;;;5.00;;
17488;SDS011;8861;52.644;4.734;2022-08-18T11:15:59;4.90;;;4.50;;
17488;SDS011;8861;52.644;4.734;2022-08-18T11:18:34;5.27;;;4.80;;
17488;SDS011;8861;52.644;4.734;2022-08-18T11:21:24;5.30;;;4.90;;
17488;SDS011;8861;52.644;4.734;2022-08-18T11:24:01;5.60;;;5.10;;
17488;SDS011;8861;52.644;4.734;2022-08-18T11:26:38;5.50;;;5.07;;
17488;SDS011;8861;52.644;4.734;2022-08-18T11:32:04;6.40;;;5.70;;
17488;SDS011;8861;52.644;4.734;2022-08-18T11:34:34;5.80;;;5.23;;
17488;SDS011;8861;52.644;4.734;2022-08-18T11:37:05;5.70;;;5.20;;
17488;SDS011;8861;52.644;4.734;2022-08-18T11:39:41;5.47;;;4.97;;
17488;SDS011;8861;52.644;4.734;2022-08-18T11:42:15;5.00;;;4.53;;
17488;SDS011;8861;52.644;4.734;2022-08-18T11:44:43;5.07;;;4.67;;
17488;SDS011;8861;52.644;4.734;2022-08-18T11:47:12;4.30;;;4.00;;
17488;SDS011;8861;52.644;4.734;2022-08-18T11:49:48;4.10;;;3.70;;
17488;SDS011;8861;52.644;4.734;2022-08-18T11:52:22;5.33;;;4.40;;
17488;SDS011;8861;52.644;4.734;2022-08-18T11:54:51;4.90;;;4.50;;
17488;SDS011;8861;52.644;4.734;2022-08-18T12:03:24;3.80;;;3.50;;
17488;SDS011;8861;52.644;4.734;2022-08-18T12:05:56;2.70;;;2.50;;
17488;SDS011;8861;52.644;4.734;2022-08-18T12:08:32;2.40;;;2.20;;
17488;SDS011;8861;52.644;4.734;2022-08-18T12:11:02;2.37;;;2.17;;
17488;SDS011;8861;52.644;4.734;2022-08-18T12:13:32;2.10;;;2.00;;
17488;SDS011;8861;52.644;4.734;2022-08-18T12:16:06;1.70;;;1.60;;
17488;SDS011;8861;52.644;4.734;2022-08-18T12:18:38;1.83;;;1.73;;
17488;SDS011;8861;52.644;4.734;2022-08-18T12:21:07;1.90;;;1.80;;
17488;SDS011;8861;52.644;4.734;2022-08-18T12:23:36;2.23;;;2.03;;
17488;SDS011;8861;52.644;4.734;2022-08-18T12:26:07;1.90;;;1.80;;
17488;SDS011;8861;52.644;4.734;2022-08-18T12:28:36;3.00;;;2.30;;
17488;SDS011;8861;52.644;4.734;2022-08-18T12:31:03;1.97;;;1.87;;
17488;SDS011;8861;52.644;4.734;2022-08-18T12:33:31;2.33;;;2.00;;
17488;SDS011;8861;52.644;4.734;2022-08-18T12:35:59;2.63;;;2.23;;
17488;SDS011;8861;52.644;4.734;2022-08-18T12:38:26;2.53;;;2.33;;
17488;SDS011;8861;52.644;4.734;2022-08-18T12:40:53;2.70;;;2.50;;
17488;SDS011;8861;52.644;4.734;2022-08-18T12:43:21;3.23;;;2.60;;
17488;SDS011;8861;52.644;4.734;2022-08-18T12:45:49;2.20;;;2.10;;
17488;SDS011;8861;52.644;4.734;2022-08-18T12:48:16;2.60;;;2.40;;
17488;SDS011;8861;52.644;4.734;2022-08-18T12:50:43;2.63;;;2.30;;
17488;SDS011;8861;52.644;4.734;2022-08-18T12:53:10;2.47;;;2.27;;
17488;SDS011;8861;52.644;4.734;2022-08-18T12:55:39;3.10;;;2.60;;
17488;SDS011;8861;52.644;4.734;2022-08-18T12:58:08;2.90;;;2.70;;
17488;SDS011;8861;52.644;4.734;2022-08-18T13:00:35;3.07;;;2.77;;
17488;SDS011;8861;52.644;4.734;2022-08-18T13:03:04;2.70;;;2.50;;
17488;SDS011;8861;52.644;4.734;2022-08-18T13:05:31;2.80;;;2.27;;
17488;SDS011;8861;52.644;4.734;2022-08-18T13:08:00;2.67;;;2.47;;
17488;SDS011;8861;52.644;4.734;2022-08-18T13:10:29;2.60;;;2.40;;
17488;SDS011;8861;52.644;4.734;2022-08-18T13:12:56;2.87;;;2.60;;
17488;SDS011;8861;52.644;4.734;2022-08-18T13:15:22;2.93;;;2.63;;
17488;SDS011;8861;52.644;4.734;2022-08-18T13:17:49;2.50;;;2.23;;
17488;SDS011;8861;52.644;4.734;2022-08-18T13:20:18;2.60;;;2.40;;
17488;SDS011;8861;52.644;4.734;2022-08-18T13:22:45;2.90;;;2.60;;
17488;SDS011;8861;52.644;4.734;2022-08-18T13:25:12;3.70;;;2.93;;
17488;SDS011;8861;52.644;4.734;2022-08-18T13:27:42;3.87;;;2.50;;
17488;SDS011;8861;52.644;4.734;2022-08-18T13:30:10;2.53;;;2.20;;
17488;SDS011;8861;52.644;4.734;2022-08-18T13:32:39;2.60;;;2.40;;
17488;SDS011;8861;52.644;4.734;2022-08-18T13:35:08;2.40;;;2.20;;
17488;SDS011;8861;52.644;4.734;2022-08-18T13:37:37;2.67;;;2.40;;
17488;SDS011;8861;52.644;4.734;2022-08-18T13:40:06;2.70;;;2.37;;
17488;SDS011;8861;52.644;4.734;2022-08-18T13:42:40;3.30;;;2.50;;
17488;SDS011;8861;52.644;4.734;2022-08-18T13:45:12;2.70;;;2.33;;
17488;SDS011;8861;52.644;4.734;2022-08-18T13:47:40;3.13;;;2.47;;
17488;SDS011;8861;52.644;4.734;2022-08-18T13:50:08;4.07;;;2.30;;
17488;SDS011;8861;52.644;4.734;2022-08-18T13:52:38;3.70;;;2.50;;
17488;SDS011;8861;52.644;4.734;2022-08-18T13:55:07;3.23;;;2.30;;
17488;SDS011;8861;52.644;4.734;2022-08-18T13:57:37;2.53;;;2.33;;
17488;SDS011;8861;52.644;4.734;2022-08-18T14:00:07;2.57;;;2.37;;
17488;SDS011;8861;52.644;4.734;2022-08-18T14:02:37;2.43;;;2.17;;
17488;SDS011;8861;52.644;4.734;2022-08-18T14:05:04;3.03;;;2.13;;
17488;SDS011;8861;52.644;4.734;2022-08-18T14:07:33;2.63;;;2.20;;
17488;SDS011;8861;52.644;4.734;2022-08-18T14:10:02;2.33;;;2.00;;
17488;SDS011;8861;52.644;4.734;2022-08-18T14:12:31;2.57;;;2.33;;
17488;SDS011;8861;52.644;4.734;2022-08-18T14:14:59;3.07;;;2.30;;
17488;SDS011;8861;52.644;4.734;2022-08-18T14:17:26;2.43;;;2.23;;
17488;SDS011;8861;52.644;4.734;2022-08-18T14:19:53;2.50;;;2.30;;
17488;SDS011;8861;52.644;4.734;2022-08-18T14:22:37;2.40;;;2.17;;
17488;SDS011;8861;52.644;4.734;2022-08-18T14:25:23;2.87;;;2.23;;
17488;SDS011;8861;52.644;4.734;2022-08-18T14:28:07;2.40;;;2.20;;
17488;SDS011;8861;52.644;4.734;2022-08-18T14:30:34;2.80;;;2.00;;
17488;SDS011;8861;52.644;4.734;2022-08-18T14:33:03;2.30;;;2.10;;
17488;SDS011;8861;52.644;4.734;2022-08-18T14:35:31;2.60;;;2.20;;
17488;SDS011;8861;52.644;4.734;2022-08-18T14:37:58;2.03;;;1.93;;
17488;SDS011;8861;52.644;4.734;2022-08-18T14:40:27;2.23;;;2.03;;
17488;SDS011;8861;52.644;4.734;2022-08-18T14:42:55;2.00;;;1.80;;
17488;SDS011;8861;52.644;4.734;2022-08-18T14:45:22;2.47;;;2.07;;
17488;SDS011;8861;52.644;4.734;2022-08-18T14:47:50;2.40;;;2.20;;
17488;SDS011;8861;52.644;4.734;2022-08-18T14:50:18;2.40;;;2.17;;
17488;SDS011;8861;52.644;4.734;2022-08-18T14:52:45;2.27;;;2.07;;
17488;SDS011;8861;52.644;4.734;2022-08-18T14:55:13;2.17;;;1.97;;
17488;SDS011;8861;52.644;4.734;2022-08-18T14:57:43;2.10;;;1.90;;
17488;SDS011;8861;52.644;4.734;2022-08-18T15:00:11;2.50;;;1.87;;
17488;SDS011;8861;52.644;4.734;2022-08-18T15:02:43;2.13;;;1.93;;
17488;SDS011;8861;52.644;4.734;2022-08-18T15:05:11;2.77;;;2.20;;
17488;SDS011;8861;52.644;4.734;2022-08-18T15:07:38;2.43;;;2.23;;
17488;SDS011;8861;52.644;4.734;2022-08-18T15:10:06;2.37;;;1.93;;
17488;SDS011;8861;52.644;4.734;2022-08-18T15:12:36;2.07;;;1.90;;
17488;SDS011;8861;52.644;4.734;2022-08-18T15:15:06;1.90;;;1.80;;
17488;SDS011;8861;52.644;4.734;2022-08-18T15:17:36;1.80;;;1.70;;
17488;SDS011;8861;52.644;4.734;2022-08-18T15:20:03;2.23;;;2.03;;
17488;SDS011;8861;52.644;4.734;2022-08-18T15:22:34;2.10;;;1.93;;
17488;SDS011;8861;52.644;4.734;2022-08-18T15:25:20;2.30;;;2.00;;
17488;SDS011;8861;52.644;4.734;2022-08-18T15:28:06;2.00;;;1.80;;
17488;SDS011;8861;52.644;4.734;2022-08-18T15:30:35;2.10;;;1.90;;
17488;SDS011;8861;52.644;4.734;2022-08-18T15:33:02;2.60;;;2.30;;
17488;SDS011;8861;52.644;4.734;2022-08-18T15:35:30;2.30;;;2.10;;
17488;SDS011;8861;52.644;4.734;2022-08-18T15:37:58;2.10;;;1.90;;
17488;SDS011;8861;52.644;4.734;2022-08-18T15:40:26;2.13;;;1.93;;
17488;SDS011;8861;52.644;4.734;2022-08-18T15:42:55;2.23;;;2.10;;
17488;SDS011;8861;52.644;4.734;2022-08-18T15:45:28;2.10;;;2.00;;
17488;SDS011;8861;52.644;4.734;2022-08-18T15:47:59;2.30;;;2.10;;
17488;SDS011;8861;52.644;4.734;2022-08-18T15:50:27;2.20;;;2.00;;
17488;SDS011;8861;52.644;4.734;2022-08-18T15:52:55;2.13;;;1.93;;
17488;SDS011;8861;52.644;4.734;2022-08-18T15:55:24;2.33;;;2.13;;
17488;SDS011;8861;52.644;4.734;2022-08-18T15:57:53;2.10;;;2.00;;
17488;SDS011;8861;52.644;4.734;2022-08-18T16:00:21;2.40;;;2.20;;
17488;SDS011;8861;52.644;4.734;2022-08-18T16:02:49;2.13;;;2.00;;
17488;SDS011;8861;52.644;4.734;2022-08-18T16:05:19;2.57;;;2.30;;
17488;SDS011;8861;52.644;4.734;2022-08-18T16:07:48;3.17;;;2.40;;